createdAt,value
2022-11-07T00:02:45.321Z,2.52
2022-11-07T00:07:48.340Z,2.63
2022-11-07T00:12:51.176Z,2.81
2022-11-07T00:17:53.949Z,2.96
2022-11-07T00:22:59.236Z,3.05
2022-11-07T00:28:02.095Z,3.22
2022-11-07T00:33:04.992Z,3.31
2022-11-07T00:38:07.887Z,3.43
2022-11-07T00:43:12.094Z,3.57
2022-11-07T00:48:15.329Z,3.69
2022-11-07T00:53:18.315Z,3.82
2022-11-07T00:58:21.125Z,3.89
2022-11-07T01:03:45.363Z,3.99
2022-11-07T01:08:48.316Z,4.08
2022-11-07T01:13:51.306Z,4.16
2022-11-07T01:18:54.216Z,4.23
2022-11-07T01:23:57.125Z,4.32
2022-11-07T01:29:00.226Z,4.42
2022-11-07T01:34:03.524Z,4.43
2022-11-07T01:39:06.364Z,4.48
2022-11-07T01:44:09.228Z,4.51
2022-11-07T01:49:44.669Z,4.55
2022-11-07T01:55:23.373Z,4.68
2022-11-07T02:00:26.877Z,4.75
2022-11-07T02:05:40.945Z,4.75
2022-11-07T02:10:43.817Z,4.80
2022-11-07T02:15:46.990Z,4.84
2022-11-07T02:20:51.652Z,4.89
2022-11-07T02:25:54.986Z,4.96
2022-11-07T02:30:58.121Z,4.97
2022-11-07T02:36:01.338Z,5.00
2022-11-07T02:41:08.177Z,5.01
2022-11-07T02:46:12.449Z,5.03
2022-11-07T02:51:15.364Z,5.14
2022-11-07T02:56:18.784Z,5.34
2022-11-07T03:01:22.154Z,5.46
2022-11-07T03:06:25.683Z,5.48
2022-11-07T03:11:29.381Z,5.52
2022-11-07T03:16:33.369Z,5.50
2022-11-07T03:21:36.199Z,5.56
2022-11-07T03:26:41.383Z,5.74
2022-11-07T03:31:44.202Z,5.86
2022-11-07T03:36:46.954Z,5.92
2022-11-07T03:41:49.867Z,5.91
2022-11-07T03:46:52.678Z,5.98
2022-11-07T03:51:55.602Z,6.09
2022-11-07T03:56:59.170Z,6.17
2022-11-07T04:02:02.146Z,6.18
2022-11-07T04:07:05.269Z,6.14
2022-11-07T04:12:28.384Z,6.09
2022-11-07T04:17:31.500Z,6.12
2022-11-07T04:22:35.293Z,6.21
2022-11-07T04:27:44.155Z,6.20
2022-11-07T04:32:52.149Z,6.21
2022-11-07T04:37:55.094Z,6.35
2022-11-07T04:42:58.092Z,6.46
2022-11-07T04:48:01.420Z,6.53
2022-11-07T04:53:04.322Z,6.56
2022-11-07T04:58:07.198Z,6.60
2022-11-07T05:03:10.071Z,6.65
2022-11-07T05:08:12.922Z,6.76
2022-11-07T05:13:15.949Z,6.85
2022-11-07T05:18:21.330Z,6.94
2022-11-07T05:23:24.162Z,6.93
2022-11-07T05:28:51.381Z,6.98
2022-11-07T05:33:54.241Z,7.06
2022-11-07T05:38:57.028Z,7.11
2022-11-07T05:43:59.883Z,7.18
2022-11-07T05:49:02.868Z,7.22
2022-11-07T05:54:05.761Z,7.26
2022-11-07T05:59:10.701Z,7.34
2022-11-07T06:04:13.543Z,7.44
2022-11-07T06:09:16.939Z,7.55
2022-11-07T06:14:20.035Z,7.61
2022-11-07T06:19:23.173Z,7.73
2022-11-07T06:24:25.957Z,7.78
2022-11-07T06:29:28.910Z,7.86
2022-11-07T06:34:31.744Z,7.91
2022-11-07T06:39:34.575Z,7.95
2022-11-07T06:44:37.518Z,8.02
2022-11-07T06:49:40.316Z,8.10
2022-11-07T06:54:44.251Z,8.17
2022-11-07T06:59:51.610Z,8.20
2022-11-07T07:04:54.935Z,8.27
2022-11-07T07:09:57.685Z,8.34
2022-11-07T07:15:00.966Z,8.41
2022-11-07T07:20:05.693Z,8.45
2022-11-07T07:25:09.499Z,8.55
2022-11-07T07:30:13.614Z,8.62
2022-11-07T07:35:19.494Z,8.69
2022-11-07T07:40:22.621Z,8.72
2022-11-07T07:45:25.370Z,8.74
2022-11-07T07:50:28.237Z,8.78
2022-11-07T07:55:31.186Z,8.85
2022-11-07T08:00:34.222Z,8.95
2022-11-07T08:05:38.293Z,8.98
2022-11-07T08:10:43.052Z,9.04
2022-11-07T08:15:46.673Z,9.14
2022-11-07T08:20:51.110Z,9.28
2022-11-07T08:25:57.595Z,9.45
2022-11-07T08:31:05.947Z,9.55
2022-11-07T08:36:09.317Z,9.67
2022-11-07T08:41:12.166Z,9.76
2022-11-07T08:46:15.438Z,9.91
2022-11-07T08:51:21.105Z,10.06
2022-11-07T08:56:24.190Z,10.21
2022-11-07T09:01:27.152Z,10.35
2022-11-07T09:06:33.414Z,10.48
2022-11-07T09:11:36.297Z,10.60
2022-11-07T09:16:41.851Z,10.81
2022-11-07T09:21:45.706Z,11.01
2022-11-07T09:26:48.545Z,11.14
2022-11-07T09:31:51.391Z,11.26
2022-11-07T09:36:54.147Z,11.37
2022-11-07T09:42:06.655Z,11.37
2022-11-07T09:47:17.386Z,11.38
2022-11-07T09:52:55.729Z,11.43
2022-11-07T09:58:32.151Z,11.47
2022-11-07T10:03:35.507Z,11.47
2022-11-07T10:08:50.320Z,11.49
2022-11-07T10:14:00.954Z,11.57
2022-11-07T10:19:22.888Z,11.62
2022-11-07T10:24:52.605Z,11.65
2022-11-07T10:29:56.446Z,11.72
2022-11-07T10:35:31.322Z,11.76
2022-11-07T10:40:38.637Z,11.82
2022-11-07T10:45:41.915Z,11.88
2022-11-07T10:50:54.481Z,11.91
2022-11-07T10:55:58.162Z,11.79
2022-11-07T11:01:03.783Z,11.73
2022-11-07T11:06:19.117Z,11.72
2022-11-07T11:11:21.842Z,11.73
2022-11-07T11:16:27.947Z,11.70
2022-11-07T11:21:45.216Z,11.67
2022-11-07T11:26:49.227Z,11.62
2022-11-07T11:31:52.166Z,11.68
2022-11-07T11:37:16.446Z,11.86
2022-11-07T11:42:27.606Z,11.91
2022-11-07T11:47:37.389Z,11.93
2022-11-07T11:52:40.177Z,11.90
2022-11-07T11:58:01.433Z,11.77
2022-11-07T12:03:35.453Z,11.76
2022-11-07T12:09:21.453Z,11.72
2022-11-07T12:14:43.207Z,11.61
2022-11-07T12:20:18.091Z,11.54
2022-11-07T12:25:30.848Z,11.42
2022-11-07T12:30:59.216Z,11.35
2022-11-07T12:36:21.889Z,11.32
2022-11-07T12:42:10.125Z,11.51
2022-11-07T12:47:48.010Z,11.63
2022-11-07T12:53:40.876Z,11.55
2022-11-07T12:58:44.143Z,11.51
2022-11-07T13:04:38.988Z,11.52
2022-11-07T13:10:18.164Z,11.57
2022-11-07T13:15:20.986Z,11.63
2022-11-07T13:20:29.680Z,11.48
2022-11-07T13:25:33.626Z,11.39
2022-11-07T13:30:38.130Z,11.33
2022-11-07T13:35:40.897Z,11.32
2022-11-07T13:41:03.121Z,11.22
2022-11-07T13:46:16.868Z,11.11
2022-11-07T13:51:27.700Z,11.03
2022-11-07T13:56:53.604Z,10.99
2022-11-07T14:01:58.125Z,10.92
2022-11-07T14:07:02.198Z,10.93
2022-11-07T14:12:05.403Z,10.90
2022-11-07T14:17:14.395Z,10.80
2022-11-07T14:22:26.336Z,10.75
2022-11-07T14:27:29.205Z,10.71
2022-11-07T14:32:32.373Z,10.64
2022-11-07T14:37:35.789Z,10.56
2022-11-07T14:42:38.631Z,10.54
2022-11-07T14:47:41.713Z,10.50
2022-11-07T14:53:10.906Z,10.45
2022-11-07T14:58:16.176Z,10.42
2022-11-07T15:03:29.838Z,10.39
2022-11-07T15:08:36.740Z,10.36
2022-11-07T15:13:39.529Z,10.31
2022-11-07T15:18:46.998Z,10.28
2022-11-07T15:23:49.829Z,10.28
2022-11-07T15:28:53.451Z,10.24
2022-11-07T15:33:58.196Z,10.22
2022-11-07T15:39:00.985Z,10.20
2022-11-07T15:44:04.144Z,10.19
2022-11-07T15:49:07.356Z,10.21
2022-11-07T15:54:12.757Z,10.20
2022-11-07T15:59:21.965Z,10.18
2022-11-07T16:04:24.758Z,10.22
2022-11-07T16:09:29.788Z,10.18
2022-11-07T16:14:47.820Z,10.16
2022-11-07T16:19:50.692Z,10.13
2022-11-07T16:24:53.480Z,10.13
2022-11-07T16:29:56.326Z,10.11
2022-11-07T16:34:59.867Z,10.10
2022-11-07T16:40:04.623Z,10.09
2022-11-07T16:45:08.079Z,10.10
2022-11-07T16:50:15.185Z,10.06
2022-11-07T16:55:19.969Z,10.07
2022-11-07T17:00:23.568Z,10.05
2022-11-07T17:05:26.571Z,10.02
2022-11-07T17:10:29.346Z,10.01
2022-11-07T17:15:32.184Z,10.01
2022-11-07T17:20:50.311Z,10.01
2022-11-07T17:25:54.261Z,9.97
2022-11-07T17:30:57.013Z,9.99
2022-11-07T17:35:59.810Z,9.99
2022-11-07T17:41:17.339Z,9.93
2022-11-07T17:46:26.279Z,9.89
2022-11-07T17:51:29.320Z,9.92
2022-11-07T17:56:32.806Z,9.90
2022-11-07T18:01:37.467Z,9.85
2022-11-07T18:06:42.602Z,9.85
2022-11-07T18:11:45.592Z,9.85
2022-11-07T18:16:48.444Z,9.82
2022-11-07T18:22:56.203Z,9.78
2022-11-07T18:27:59.046Z,9.76
2022-11-07T18:33:02.248Z,9.76
2022-11-07T18:38:05.006Z,9.76
2022-11-07T18:43:09.986Z,9.71
2022-11-07T18:48:15.053Z,9.71
2022-11-07T18:53:18.302Z,9.68
2022-11-07T18:58:21.110Z,9.66
2022-11-07T19:03:23.881Z,9.57
2022-11-07T19:08:32.138Z,9.47
2022-11-07T19:13:40.225Z,9.39
2022-11-07T19:18:49.220Z,9.27
2022-11-07T19:23:52.807Z,9.14
2022-11-07T19:28:57.852Z,9.01
2022-11-07T19:34:00.725Z,8.91
2022-11-07T19:39:03.655Z,8.84
2022-11-07T19:44:07.593Z,8.74
2022-11-07T19:49:10.518Z,8.71
2022-11-07T19:54:13.693Z,8.72
2022-11-07T19:59:17.945Z,8.73
2022-11-07T20:04:20.979Z,8.70
2022-11-07T20:09:23.789Z,8.66
2022-11-07T20:14:26.628Z,8.61
2022-11-07T20:19:31.777Z,8.56
2022-11-07T20:24:34.667Z,8.48
2022-11-07T20:29:37.517Z,8.44
2022-11-07T20:34:40.391Z,8.35
2022-11-07T20:39:46.263Z,8.23
2022-11-07T20:44:52.332Z,8.09
2022-11-07T20:49:55.172Z,8.04
2022-11-07T20:54:58.318Z,8.05
2022-11-07T21:00:01.106Z,8.04
2022-11-07T21:05:17.633Z,7.96
2022-11-07T21:10:21.369Z,7.91
2022-11-07T21:15:24.119Z,7.87
2022-11-07T21:20:26.908Z,7.80
2022-11-07T21:25:30.955Z,7.69
2022-11-07T21:30:33.888Z,7.62
2022-11-07T21:35:41.960Z,7.67
2022-11-07T21:40:44.741Z,7.67
2022-11-07T21:45:47.613Z,7.66
2022-11-07T21:50:50.476Z,7.69
2022-11-07T21:55:53.249Z,7.63
2022-11-07T22:01:04.462Z,7.52
2022-11-07T22:06:10.361Z,7.45
2022-11-07T22:11:13.589Z,7.40
2022-11-07T22:16:20.980Z,7.32
2022-11-07T22:21:23.969Z,7.22
2022-11-07T22:26:27.716Z,7.12
2022-11-07T22:31:30.838Z,7.05
2022-11-07T22:36:33.794Z,7.01
2022-11-07T22:41:36.675Z,6.92
2022-11-07T22:46:39.690Z,6.79
2022-11-07T22:51:43.094Z,6.75
2022-11-07T22:56:45.845Z,6.73
2022-11-07T23:01:48.969Z,6.70
2022-11-07T23:06:51.944Z,6.68
2022-11-07T23:11:54.778Z,6.73
2022-11-07T23:17:00.035Z,6.81
2022-11-07T23:22:02.918Z,6.92
2022-11-07T23:27:05.760Z,7.06
2022-11-07T23:32:10.542Z,7.21
2022-11-07T23:37:18.004Z,7.22
2022-11-07T23:42:20.880Z,7.20
2022-11-07T23:47:42.693Z,7.23
2022-11-07T23:52:45.507Z,7.33
2022-11-07T23:58:07.770Z,7.45
